createdAt,value
2019-05-06T00:01:47.924Z,70.07
2019-05-06T00:04:19.499Z,69.46
2019-05-06T00:06:48.725Z,69.06
2019-05-06T00:09:19.182Z,69.49
2019-05-06T00:11:54.297Z,70.25
2019-05-06T00:14:25.256Z,70.07
2019-05-06T00:16:55.186Z,70.86
2019-05-06T00:19:25.449Z,71.10
2019-05-06T00:21:54.718Z,70.78
2019-05-06T00:24:26.548Z,70.76
2019-05-06T00:27:06.431Z,70.76
2019-05-06T00:29:39.717Z,70.86
2019-05-06T00:32:09.797Z,70.85
2019-05-06T00:34:40.451Z,70.81
2019-05-06T00:37:12.115Z,71.05
2019-05-06T00:39:53.908Z,70.96
2019-05-06T00:42:34.677Z,71.00
2019-05-06T00:45:04.615Z,71.48
2019-05-06T00:47:35.134Z,71.89
2019-05-06T00:50:09.113Z,72.06
2019-05-06T00:52:39.559Z,72.16
2019-05-06T00:55:09.219Z,72.04
2019-05-06T00:57:44.652Z,71.85
2019-05-06T01:00:24.508Z,71.80
2019-05-06T01:02:54.353Z,71.91
2019-05-06T01:05:24.498Z,71.92
2019-05-06T01:07:54.956Z,72.14
2019-05-06T01:10:25.710Z,72.21
2019-05-06T01:13:14.549Z,72.87
2019-05-06T01:15:44.099Z,73.24
2019-05-06T01:18:13.764Z,72.99
2019-05-06T01:20:44.665Z,72.74
2019-05-06T01:23:16.147Z,72.96
2019-05-06T01:25:46.459Z,73.19
2019-05-06T01:28:15.937Z,73.36
2019-05-06T01:30:48.221Z,74.16
2019-05-06T01:33:20.901Z,74.12
2019-05-06T01:35:54.877Z,74.27
2019-05-06T01:38:33.814Z,74.29
2019-05-06T01:41:17.248Z,74.37
2019-05-06T01:43:46.549Z,74.15
2019-05-06T01:46:17.378Z,73.89
2019-05-06T01:48:49.613Z,74.24
2019-05-06T01:51:20.027Z,74.69
2019-05-06T01:53:50.996Z,74.82
2019-05-06T01:56:20.251Z,74.58
2019-05-06T01:58:51.127Z,74.44
2019-05-06T02:01:20.677Z,74.74
2019-05-06T02:03:50.680Z,75.04
2019-05-06T02:06:19.952Z,75.03
2019-05-06T02:08:49.889Z,75.37
2019-05-06T02:11:19.493Z,75.70
2019-05-06T02:13:48.717Z,76.26
2019-05-06T02:16:18.284Z,76.99
2019-05-06T02:18:55.872Z,77.28
2019-05-06T02:21:43.906Z,77.43
2019-05-06T02:24:19.175Z,77.65
2019-05-06T02:26:49.876Z,77.59
2019-05-06T02:29:24.679Z,77.73
2019-05-06T02:32:17.101Z,77.99
2019-05-06T02:34:45.811Z,78.90
2019-05-06T02:37:27.451Z,79.59
2019-05-06T02:39:56.684Z,79.92
2019-05-06T02:42:25.947Z,80.29
2019-05-06T02:44:56.652Z,80.12
2019-05-06T02:47:47.375Z,80.08
2019-05-06T02:50:19.572Z,80.08
2019-05-06T02:52:48.811Z,80.22
2019-05-06T02:55:19.513Z,80.05
2019-05-06T02:57:49.097Z,80.41
2019-05-06T03:00:20.470Z,80.62
2019-05-06T03:02:53.841Z,80.45
2019-05-06T03:05:29.522Z,80.35
2019-05-06T03:07:58.774Z,80.33
2019-05-06T03:10:36.537Z,80.12
2019-05-06T03:13:05.795Z,79.63
2019-05-06T03:15:37.186Z,78.96
2019-05-06T03:18:06.420Z,79.00
2019-05-06T03:20:59.551Z,79.47
2019-05-06T03:23:34.416Z,79.58
2019-05-06T03:26:03.756Z,79.32
2019-05-06T03:28:33.467Z,78.96
2019-05-06T03:31:07.125Z,79.50
2019-05-06T03:33:50.691Z,79.76
2019-05-06T03:36:15.504Z,79.62
2019-05-06T03:38:36.884Z,79.47
2019-05-06T03:41:06.118Z,79.54
2019-05-06T03:43:37.009Z,79.32
2019-05-06T03:46:16.703Z,79.12
2019-05-06T03:48:47.050Z,79.37
2019-05-06T03:51:16.664Z,79.64
2019-05-06T03:53:45.947Z,79.60
2019-05-06T03:56:19.764Z,79.78
2019-05-06T03:58:48.887Z,79.33
2019-05-06T04:01:18.449Z,79.79
2019-05-06T04:03:53.804Z,79.81
2019-05-06T04:06:19.927Z,80.04
2019-05-06T04:08:52.854Z,80.11
2019-05-06T04:11:24.243Z,79.92
2019-05-06T04:13:54.363Z,79.36
2019-05-06T04:16:45.347Z,79.59
2019-05-06T04:19:25.591Z,79.62
2019-05-06T04:22:03.703Z,79.60
2019-05-06T04:24:55.218Z,79.74
2019-05-06T04:27:45.704Z,79.75
2019-05-06T04:30:16.337Z,79.34
2019-05-06T04:32:46.008Z,78.39
2019-05-06T04:35:15.307Z,78.25
2019-05-06T04:37:44.655Z,78.36
2019-05-06T04:40:14.812Z,78.54
2019-05-06T04:42:45.492Z,78.70
2019-05-06T04:45:17.943Z,77.90
2019-05-06T04:47:46.994Z,77.80
2019-05-06T04:50:17.435Z,78.49
2019-05-06T04:52:48.313Z,78.27
2019-05-06T04:55:17.742Z,78.14
2019-05-06T04:57:47.941Z,78.14
2019-05-06T05:00:23.401Z,78.21
2019-05-06T05:02:55.106Z,78.70
2019-05-06T05:05:25.599Z,78.81
2019-05-06T05:07:54.820Z,78.29
2019-05-06T05:10:28.146Z,78.70
2019-05-06T05:13:23.125Z,78.56
2019-05-06T05:16:10.173Z,79.02
2019-05-06T05:18:55.564Z,78.75
2019-05-06T05:21:24.889Z,78.15
2019-05-06T05:23:54.245Z,76.49
2019-05-06T05:26:23.463Z,74.81
2019-05-06T05:28:59.319Z,73.16
2019-05-06T05:31:28.528Z,73.54
2019-05-06T05:34:02.075Z,73.87
2019-05-06T05:36:32.858Z,72.81
2019-05-06T05:39:03.338Z,71.72
2019-05-06T05:41:33.361Z,70.49
2019-05-06T05:44:09.242Z,69.03
2019-05-06T05:46:40.550Z,67.98
2019-05-06T05:49:37.886Z,68.41
2019-05-06T05:52:07.109Z,67.78
2019-05-06T05:54:36.350Z,66.66
2019-05-06T05:57:05.696Z,66.20
2019-05-06T05:59:34.942Z,65.75
2019-05-06T06:02:05.160Z,64.94
2019-05-06T06:04:34.397Z,64.37
2019-05-06T06:07:03.617Z,64.53
2019-05-06T06:09:37.652Z,63.47
2019-05-06T06:12:08.352Z,61.86
2019-05-06T06:14:56.577Z,61.35
2019-05-06T06:17:47.298Z,62.37
2019-05-06T06:20:38.509Z,61.95
2019-05-06T06:23:13.819Z,61.14
2019-05-06T06:25:43.339Z,61.42
2019-05-06T06:28:12.968Z,61.27
2019-05-06T06:31:04.374Z,61.09
2019-05-06T06:33:33.604Z,61.50
2019-05-06T06:36:23.102Z,59.49
2019-05-06T06:39:20.369Z,59.38
2019-05-06T06:41:49.594Z,59.95
2019-05-06T06:44:23.553Z,57.42
2019-05-06T06:46:53.984Z,57.01
2019-05-06T06:49:23.447Z,57.06
2019-05-06T06:51:56.203Z,58.80
2019-05-06T06:54:25.617Z,57.06
2019-05-06T06:57:21.680Z,56.48
2019-05-06T06:59:55.661Z,57.61
2019-05-06T07:02:44.491Z,56.12
2019-05-06T07:05:33.237Z,57.32
2019-05-06T07:08:02.490Z,58.71
2019-05-06T07:10:44.920Z,58.66
2019-05-06T07:13:17.065Z,59.96
2019-05-06T07:15:48.986Z,59.42
2019-05-06T07:18:18.568Z,59.68
2019-05-06T07:21:13.850Z,59.24
2019-05-06T07:23:42.121Z,59.00
2019-05-06T07:26:13.267Z,56.87
2019-05-06T07:28:43.613Z,54.50
2019-05-06T07:31:21.315Z,51.37
2019-05-06T07:33:45.795Z,49.29
2019-05-06T07:36:15.065Z,43.89
2019-05-06T07:38:52.667Z,39.34
2019-05-06T07:41:28.422Z,35.54
2019-05-06T07:44:12.825Z,36.78
2019-05-06T07:46:55.578Z,36.78
2019-05-06T07:49:27.767Z,35.48
2019-05-06T07:51:57.561Z,29.66
2019-05-06T07:54:27.986Z,26.22
2019-05-06T07:56:57.583Z,25.54
2019-05-06T07:59:33.252Z,24.05
2019-05-06T08:02:05.181Z,26.85
2019-05-06T08:04:35.336Z,31.55
2019-05-06T08:07:04.883Z,35.95
2019-05-06T08:09:35.906Z,39.30
2019-05-06T08:12:05.901Z,39.64
2019-05-06T08:14:44.285Z,42.36
2019-05-06T08:17:29.982Z,45.65
2019-05-06T08:19:59.181Z,45.60
2019-05-06T08:23:07.501Z,46.46
2019-05-06T08:25:38.705Z,45.88
2019-05-06T08:30:56.820Z,46.88
2019-05-06T08:33:27.716Z,47.76
2019-05-06T08:36:10.572Z,48.04
2019-05-06T08:38:50.386Z,47.88
2019-05-06T08:41:22.755Z,47.17
2019-05-06T08:43:52.826Z,43.83
2019-05-06T08:46:23.457Z,42.50
2019-05-06T08:48:52.975Z,40.78
2019-05-06T08:51:36.238Z,38.83
2019-05-06T08:54:10.120Z,36.02
2019-05-06T08:56:40.204Z,37.20
2019-05-06T08:59:09.479Z,37.34
2019-05-06T09:01:49.683Z,37.17
2019-05-06T09:04:22.892Z,38.01
2019-05-06T09:06:53.459Z,38.52
2019-05-06T09:09:23.496Z,37.61
2019-05-06T09:11:53.530Z,38.19
2019-05-06T09:14:24.017Z,35.70
2019-05-06T09:16:54.036Z,29.67
2019-05-06T09:19:23.671Z,25.69
2019-05-06T09:21:53.414Z,22.41
2019-05-06T09:24:24.139Z,23.13
2019-05-06T09:27:12.343Z,22.51
2019-05-06T09:29:55.173Z,27.52
2019-05-06T09:32:28.609Z,27.52
2019-05-06T09:35:02.714Z,29.75
2019-05-06T09:37:32.717Z,29.54
2019-05-06T09:40:02.832Z,29.26
2019-05-06T09:42:33.413Z,26.61
2019-05-06T09:45:03.550Z,24.02
2019-05-06T09:47:42.393Z,25.18
2019-05-06T09:50:18.013Z,27.83
2019-05-06T09:52:48.343Z,26.26
2019-05-06T09:55:33.887Z,27.34
2019-05-06T09:58:05.135Z,30.36
2019-05-06T10:00:38.059Z,34.59
2019-05-06T10:03:07.672Z,36.98
2019-05-06T10:05:36.917Z,38.83
2019-05-06T10:08:06.138Z,39.62
2019-05-06T10:10:36.288Z,40.61
2019-05-06T10:13:05.929Z,41.41
2019-05-06T10:15:35.289Z,40.87
2019-05-06T10:18:12.718Z,38.88
2019-05-06T10:20:44.106Z,38.65
2019-05-06T10:23:14.155Z,36.75
2019-05-06T10:25:44.160Z,37.91
2019-05-06T10:28:38.753Z,36.52
2019-05-06T10:31:12.843Z,36.00
2019-05-06T10:33:59.482Z,35.00
2019-05-06T10:36:34.487Z,35.20
2019-05-06T10:39:08.937Z,35.00
2019-05-06T10:41:42.266Z,35.48
2019-05-06T10:44:22.644Z,34.64
2019-05-06T10:46:52.766Z,29.53
2019-05-06T10:49:22.613Z,29.69
2019-05-06T10:52:14.257Z,29.85
2019-05-06T10:54:45.229Z,31.93
2019-05-06T10:57:28.512Z,32.49
2019-05-06T10:59:57.751Z,33.33
2019-05-06T11:02:43.206Z,35.17
2019-05-06T11:05:15.115Z,37.38
2019-05-06T11:07:44.333Z,40.63
2019-05-06T11:10:23.750Z,43.73
2019-05-06T11:12:45.094Z,44.56
2019-05-06T11:15:16.038Z,46.36
2019-05-06T11:17:46.850Z,45.00
2019-05-06T11:20:17.882Z,45.78
2019-05-06T11:22:47.112Z,46.66
2019-05-06T11:25:16.668Z,46.19
2019-05-06T11:27:47.037Z,46.70
2019-05-06T11:30:27.771Z,47.99
2019-05-06T11:33:12.639Z,48.37
2019-05-06T11:35:54.018Z,48.36
2019-05-06T11:38:24.354Z,47.07
2019-05-06T11:40:53.593Z,47.62
2019-05-06T11:43:22.968Z,45.83
2019-05-06T11:45:52.332Z,45.39
2019-05-06T11:48:24.021Z,44.37
2019-05-06T11:50:56.501Z,43.79
2019-05-06T11:53:25.547Z,42.82
2019-05-06T11:55:56.411Z,42.91
2019-05-06T11:58:42.759Z,43.29
2019-05-06T12:01:18.337Z,42.92
2019-05-06T12:03:47.896Z,43.43
2019-05-06T12:06:17.200Z,43.41
2019-05-06T12:08:47.558Z,43.60
2019-05-06T12:11:17.114Z,43.85
2019-05-06T12:13:46.503Z,42.88
2019-05-06T12:16:15.883Z,42.63
2019-05-06T12:18:45.101Z,41.41
2019-05-06T12:21:19.126Z,42.28
2019-05-06T12:23:45.378Z,41.09
2019-05-06T12:26:14.950Z,40.56
2019-05-06T12:28:46.966Z,41.54
2019-05-06T12:31:16.291Z,39.73
2019-05-06T12:33:48.835Z,40.29
2019-05-06T12:36:22.697Z,39.83
2019-05-06T12:39:15.894Z,41.18
2019-05-06T12:41:53.451Z,42.32
2019-05-06T12:44:23.166Z,41.67
2019-05-06T12:47:07.145Z,41.58
2019-05-06T12:49:36.437Z,40.41
2019-05-06T12:52:07.424Z,40.84
2019-05-06T12:54:36.643Z,44.78
2019-05-06T12:57:06.138Z,46.24
2019-05-06T12:59:38.409Z,46.87
2019-05-06T13:02:07.650Z,46.46
2019-05-06T13:04:51.757Z,45.73
2019-05-06T13:07:09.946Z,46.00
2019-05-06T13:09:42.346Z,45.81
2019-05-06T13:12:12.504Z,45.81
2019-05-06T13:14:43.084Z,44.95
2019-05-06T13:17:14.488Z,45.32
2019-05-06T13:19:43.740Z,45.19
2019-05-06T13:22:29.421Z,44.44
2019-05-06T13:25:00.077Z,44.27
2019-05-06T13:27:38.425Z,44.33
2019-05-06T13:30:09.658Z,44.07
2019-05-06T13:32:42.605Z,44.54
2019-05-06T13:35:12.344Z,44.14
2019-05-06T13:37:42.460Z,44.42
2019-05-06T13:40:13.020Z,44.38
2019-05-06T13:42:44.900Z,44.47
2019-05-06T13:45:14.230Z,44.60
2019-05-06T13:48:03.739Z,44.11
2019-05-06T13:50:38.396Z,41.74
2019-05-06T13:53:14.801Z,42.30
2019-05-06T13:55:43.831Z,42.43
2019-05-06T13:58:13.068Z,41.96
2019-05-06T14:00:43.787Z,40.37
2019-05-06T14:03:13.563Z,40.76
2019-05-06T14:05:52.161Z,40.38
2019-05-06T14:08:22.300Z,38.19
2019-05-06T14:10:59.146Z,39.07
2019-05-06T14:13:22.843Z,37.91
2019-05-06T14:15:52.781Z,37.47
2019-05-06T14:18:23.484Z,39.07
2019-05-06T14:20:52.999Z,36.33
2019-05-06T14:23:22.310Z,35.69
2019-05-06T14:26:16.978Z,35.32
2019-05-06T14:29:12.843Z,36.27
2019-05-06T14:31:45.868Z,37.26
2019-05-06T14:34:15.124Z,39.12
2019-05-06T14:36:44.361Z,39.13
2019-05-06T14:39:23.635Z,39.37
2019-05-06T14:41:56.160Z,38.41
2019-05-06T14:44:26.338Z,38.44
2019-05-06T14:47:14.793Z,37.85
2019-05-06T14:49:44.043Z,38.24
2019-05-06T14:52:13.560Z,38.35
2019-05-06T14:54:53.822Z,36.63
2019-05-06T14:57:24.119Z,34.64
2019-05-06T14:59:55.628Z,34.15
2019-05-06T15:02:27.499Z,34.18
2019-05-06T15:04:56.920Z,34.19
2019-05-06T15:07:28.602Z,34.06
2019-05-06T15:10:14.956Z,34.55
2019-05-06T15:12:33.348Z,33.21
2019-05-06T15:15:03.807Z,31.66
2019-05-06T15:17:36.535Z,32.83
2019-05-06T15:20:04.459Z,33.96
2019-05-06T15:22:33.867Z,34.34
2019-05-06T15:25:04.912Z,34.68
2019-05-06T15:27:34.136Z,36.09
2019-05-06T15:30:06.748Z,37.02
2019-05-06T15:32:38.442Z,36.26
2019-05-06T15:35:26.660Z,36.07
2019-05-06T15:38:02.341Z,37.38
2019-05-06T15:40:36.773Z,37.76
2019-05-06T15:43:05.781Z,38.77
2019-05-06T15:45:35.617Z,38.08
2019-05-06T15:48:06.809Z,38.58
2019-05-06T15:50:38.252Z,39.38
2019-05-06T15:53:08.756Z,39.70
2019-05-06T15:55:40.451Z,40.54
2019-05-06T15:58:12.364Z,40.53
2019-05-06T16:00:42.395Z,40.43
2019-05-06T16:03:12.932Z,40.88
2019-05-06T16:05:43.657Z,41.16
2019-05-06T16:08:13.451Z,41.54
2019-05-06T16:10:51.819Z,42.82
2019-05-06T16:13:13.715Z,42.75
2019-05-06T16:15:43.191Z,43.30
2019-05-06T16:18:13.051Z,43.67
2019-05-06T16:20:43.659Z,44.27
2019-05-06T16:23:23.125Z,44.63
2019-05-06T16:25:52.562Z,44.62
2019-05-06T16:28:22.450Z,44.42
2019-05-06T16:30:53.443Z,44.75
2019-05-06T16:33:23.014Z,44.76
2019-05-06T16:35:52.422Z,44.46
2019-05-06T16:38:22.961Z,44.33
2019-05-06T16:41:09.085Z,43.60
2019-05-06T16:43:25.046Z,43.88
2019-05-06T16:45:54.288Z,43.77
2019-05-06T16:48:24.549Z,42.96
2019-05-06T16:50:53.845Z,42.50
2019-05-06T16:53:23.143Z,42.37
2019-05-06T16:56:07.001Z,41.49
2019-05-06T16:58:38.916Z,39.89
2019-05-06T17:01:14.911Z,38.00
2019-05-06T17:03:52.431Z,36.82
2019-05-06T17:06:25.908Z,38.00
2019-05-06T17:08:55.167Z,38.58
2019-05-06T17:11:30.491Z,38.66
2019-05-06T17:13:55.459Z,37.29
2019-05-06T17:16:27.203Z,37.95
2019-05-06T17:18:57.069Z,37.96
2019-05-06T17:21:27.052Z,37.83
2019-05-06T17:23:56.261Z,37.94
2019-05-06T17:26:25.665Z,38.77
2019-05-06T17:29:16.903Z,39.11
2019-05-06T17:32:13.826Z,40.08
2019-05-06T17:34:46.734Z,40.41
2019-05-06T17:37:36.956Z,41.27
2019-05-06T17:40:10.585Z,45.33
2019-05-06T17:42:38.060Z,47.17
2019-05-06T17:45:25.592Z,48.27
2019-05-06T17:47:59.018Z,49.30
2019-05-06T17:50:29.170Z,50.54
2019-05-06T17:53:00.149Z,52.01
2019-05-06T17:55:35.819Z,52.64
2019-05-06T17:58:04.921Z,53.56
2019-05-06T18:00:34.144Z,54.23
2019-05-06T18:03:03.447Z,55.07
2019-05-06T18:05:32.986Z,55.62
2019-05-06T18:08:03.046Z,56.21
2019-05-06T18:10:33.589Z,56.60
2019-05-06T18:13:03.529Z,57.05
2019-05-06T18:15:33.186Z,57.71
2019-05-06T18:18:06.450Z,58.28
2019-05-06T18:20:35.816Z,58.65
2019-05-06T18:23:07.377Z,58.76
2019-05-06T18:25:38.894Z,58.65
2019-05-06T18:28:12.114Z,59.30
2019-05-06T18:30:41.349Z,59.48
2019-05-06T18:33:13.170Z,60.19
2019-05-06T18:35:42.145Z,60.42
2019-05-06T18:38:11.735Z,60.53
2019-05-06T18:40:42.340Z,60.44
2019-05-06T18:43:12.776Z,60.28
2019-05-06T18:45:42.052Z,59.73
2019-05-06T18:48:12.459Z,60.39
2019-05-06T18:50:42.410Z,60.75
2019-05-06T18:53:13.351Z,61.24
2019-05-06T18:55:43.253Z,61.50
2019-05-06T18:58:12.942Z,60.60
2019-05-06T19:00:43.947Z,61.31
2019-05-06T19:03:14.523Z,61.37
2019-05-06T19:05:45.259Z,61.24
2019-05-06T19:08:34.828Z,61.28
2019-05-06T19:11:05.946Z,60.83
2019-05-06T19:13:35.200Z,60.52
2019-05-06T19:16:05.192Z,61.05
2019-05-06T19:18:34.481Z,61.39
2019-05-06T19:21:04.036Z,61.59
2019-05-06T19:23:33.322Z,61.80
2019-05-06T19:26:03.048Z,61.75
2019-05-06T19:28:32.915Z,61.94
2019-05-06T19:31:03.087Z,61.88
2019-05-06T19:33:34.865Z,61.80
2019-05-06T19:36:04.276Z,61.78
2019-05-06T19:38:35.766Z,61.62
2019-05-06T19:41:09.130Z,61.61
2019-05-06T19:43:39.268Z,61.82
2019-05-06T19:46:09.280Z,62.09
2019-05-06T19:48:38.521Z,61.97
2019-05-06T19:51:08.946Z,62.04
2019-05-06T19:53:38.508Z,62.40
2019-05-06T19:56:09.766Z,62.72
2019-05-06T19:58:39.017Z,63.32
2019-05-06T20:01:09.798Z,63.99
2019-05-06T20:03:39.072Z,64.32
2019-05-06T20:06:27.535Z,64.37
2019-05-06T20:09:17.499Z,65.03
2019-05-06T20:11:47.316Z,65.77
2019-05-06T20:14:25.213Z,66.08
2019-05-06T20:16:54.433Z,66.51
2019-05-06T20:19:30.712Z,67.01
2019-05-06T20:21:55.957Z,67.21
2019-05-06T20:24:25.199Z,67.38
2019-05-06T20:26:55.390Z,67.68
2019-05-06T20:29:26.218Z,67.84
2019-05-06T20:31:55.720Z,68.08
2019-05-06T20:34:26.576Z,67.99
2019-05-06T20:36:56.941Z,67.62
2019-05-06T20:39:27.002Z,67.49
2019-05-06T20:41:56.243Z,67.09
2019-05-06T20:44:26.745Z,67.07
2019-05-06T20:46:58.398Z,67.05
2019-05-06T20:49:28.556Z,67.43
2019-05-06T20:51:59.886Z,68.11
2019-05-06T20:54:29.493Z,67.62
2019-05-06T20:56:58.999Z,67.59
2019-05-06T20:59:28.810Z,67.41
2019-05-06T21:01:59.247Z,67.12
2019-05-06T21:04:28.463Z,67.35
2019-05-06T21:06:58.763Z,67.25
2019-05-06T21:09:28.014Z,67.35
2019-05-06T21:11:57.260Z,67.51
2019-05-06T21:14:26.483Z,68.10
2019-05-06T21:16:56.140Z,68.37
2019-05-06T21:19:27.148Z,68.35
2019-05-06T21:21:57.205Z,68.56
2019-05-06T21:24:27.789Z,68.16
2019-05-06T21:26:57.201Z,67.99
2019-05-06T21:29:26.417Z,68.58
2019-05-06T21:31:55.744Z,68.67
2019-05-06T21:34:25.025Z,68.50
2019-05-06T21:36:54.276Z,69.01
2019-05-06T21:39:25.380Z,69.56
2019-05-06T21:41:56.346Z,70.03
2019-05-06T21:44:26.002Z,70.07
2019-05-06T21:46:55.331Z,69.90
2019-05-06T21:49:27.841Z,70.16
2019-05-06T21:51:58.629Z,70.07
2019-05-06T21:54:28.765Z,69.89
2019-05-06T21:56:58.005Z,70.06
2019-05-06T21:59:27.964Z,69.84
2019-05-06T23:23:02.433Z,75.86
2019-05-06T23:25:32.790Z,75.83
2019-05-06T23:28:02.945Z,76.15
2019-05-06T23:30:35.040Z,76.14
2019-05-06T23:33:05.985Z,76.18
2019-05-06T23:35:38.454Z,76.26
2019-05-06T23:38:43.615Z,75.99
2019-05-06T23:41:48.644Z,75.80
2019-05-06T23:44:54.730Z,75.59
2019-05-06T23:48:02.567Z,76.00
2019-05-06T23:51:12.740Z,76.88
2019-05-06T23:54:18.396Z,77.25
2019-05-06T23:56:45.914Z,77.68
2019-05-06T23:59:22.565Z,78.55
